Latest Coastal Weather Observations for Double Island Point

IDQ60701

Issued at 10:01 pm EST Tuesday 31 May 2016 (issued every 10 minutes, with the page automatically refreshed every 10 minutes)

About coastal observations | Map of coastal stations | Coastal observations for QLD | Marine services | Other Formats
Station Details ID: 040068 Name: DOUBLE ISLAND POINT LIGHTHOUSE Lat: -25.93 Lon: 153.19 Height: 95.64 m
Data from the previous 72 hours. | See also: Recent months at Double Island Point
Date/Time
EST
Temp

°C
Wind Pressure Rain
since 9am
mm
Weather Cloud Vis
km
Sea
Height
m
Swell
Dir
 
Speed
knots
Gust
knots
hPa Trend Height
m
Period
s
Dir
31/10:00pm 20.7 ESE 15 18 1023.8 - 0.0 - - - - - - -
31/09:30pm 20.6 ESE 13 17 1024.2 - 0.0 - - - - - - -
31/09:00pm 20.6 ESE 13 16 1023.9 - 0.0 - - - - - - -
31/08:30pm 20.8 ESE 15 18 1024.0 - 0.0 - - - - - - -
31/08:00pm 20.8 ESE 15 19 1024.1 - 0.0 - - - - - - -
31/07:30pm 20.6 SE 15 18 1024.2 - 0.0 - - - - - - -
31/07:00pm 20.6 ESE 14 18 1024.1 - 0.0 - - - - - - -
31/06:30pm 20.6 ESE 13 17 1023.8 - 0.0 - - - - - - -
31/06:00pm 20.7 ESE 13 16 1023.6 - 0.0 - - - - - - -
31/05:30pm 20.6 ESE 12 15 1023.4 - 0.0 - - - - - - -
31/05:00pm 20.5 ESE 12 15 1023.3 - 0.0 - - - - - - -
31/04:30pm 20.9 ESE 12 14 1023.0 - 0.0 - - - - - - -
31/04:00pm 21.0 ESE 11 14 1022.8 - 0.0 - - - - - - -
31/03:30pm 21.0 ESE 10 13 1022.9 - 0.0 - - - - - - -
31/03:00pm 21.8 E 11 15 1023.0 - 0.0 - - - - - - -
31/02:30pm 22.5 E 11 15 1022.8 - 0.0 - - - - - - -
31/02:00pm 22.6 E 10 14 1022.9 - 0.0 - - - - - - -
31/01:30pm 22.7 E 11 14 1023.0 - 0.0 - - - - - - -
31/01:00pm 23.2 E 9 13 1023.3 - 0.0 - - - - - - -
31/12:30pm 22.9 E 8 11 1024.0 - 0.0 - - - - - - -
31/12:00pm 22.6 E 11 14 1024.2 - 0.0 - - - - - - -
31/11:30am 23.0 E 11 13 1024.5 - 0.0 - - - - - - -
31/11:00am 22.7 E 12 15 1024.8 - 0.0 - - - - - - -
31/10:30am 22.6 E 13 16 1024.9 - 0.0 - - - - - - -
31/10:00am 22.7 E 14 17 1025.1 - 0.0 - - - - - - -
31/09:30am 22.8 E 12 15 1025.6 - 0.0 - - - - - - -
31/09:00am 22.2 E 12 14 1025.5 - 0.0 - - - - - - -
31/08:30am 22.0 E 14 17 1025.0 - 0.0 - - - - - - -
31/08:00am 21.3 E 12 14 1024.8 - 0.0 - - - - - - -
31/07:30am 20.3 E 12 15 1024.8 - 0.0 - - - - - - -
31/07:00am 20.4 ESE 15 19 1024.4 - 0.0 - - - - - - -
31/06:30am 19.8 E 14 19 1024.3 - 0.0 - - - - - - -
31/06:00am 19.7 E 14 17 1023.7 - 0.0 - - - - - - -
31/05:30am 19.8 E 13 18 1023.3 - 0.0 - - - - - - -
31/05:00am 19.5 E 14 19 1023.0 - 0.0 - - - - - - -
31/04:30am 19.5 ESE 13 16 1023.1 - 0.0 - - - - - - -
31/04:00am 19.6 E 15 19 1023.0 - 0.0 - - - - - - -
31/03:30am 19.3 E 13 18 1023.1 - 0.0 - - - - - - -
31/03:00am 19.5 ESE 14 17 1022.9 - 0.0 - - - - - - -
31/02:30am 19.6 ESE 14 17 1023.0 - 0.0 - - - - - - -
31/02:00am 19.7 E 15 20 1023.1 - 0.0 - - - - - - -
31/01:30am 19.5 E 14 18 1023.2 - 0.0 - - - - - - -
31/01:00am 19.6 ESE 16 20 1023.2 - 0.0 - - - - - - -
31/12:30am 19.7 E 15 18 1023.3 - 0.0 - - - - - - -
31/12:00am 19.6 E 13 17 1023.6 - 0.0 - - - - - - -
 
Date/Time
EST
Temp

°C
Wind Pressure Rain
since 9am
mm
Weather Cloud Vis
km
Sea
Height
m
Swell
Dir
 
Speed
knots
Gust
knots
hPa Trend Height
m
Period
s
Dir
30/11:30pm 19.6 E 13 18 1023.6 - 0.0 - - - - - - -
30/11:00pm 19.6 ESE 12 14 1023.6 - 0.0 - - - - - - -
30/10:30pm 19.4 E 10 14 1024.1 - 0.0 - - - - - - -
30/10:00pm 19.4 E 11 14 1023.8 - 0.0 - - - - - - -
30/09:30pm 19.5 E 13 16 1023.5 - 0.0 - - - - - - -
30/09:00pm 19.5 E 12 15 1023.5 - 0.0 - - - - - - -
30/08:30pm 19.4 E 13 15 1023.4 - 0.0 - - - - - - -
30/08:00pm 19.5 E 12 15 1023.3 - 0.0 - - - - - - -
30/07:30pm 19.3 E 12 15 1023.0 - 0.0 - - - - - - -
30/07:00pm 19.3 E 12 16 1022.8 - 0.0 - - - - - - -
30/06:30pm 19.4 E 11 13 1022.5 - 0.0 - - - - - - -
30/06:00pm 19.4 E 10 13 1022.2 - 0.0 - - - - - - -
30/05:30pm 19.4 E 11 13 1021.9 - 0.0 - - - - - - -
30/05:00pm 19.5 ESE 9 12 1021.8 - 0.0 - - - - - - -
30/04:30pm 19.5 SE 9 11 1021.7 - 0.0 - - - - - - -
30/04:00pm 19.4 SE 10 12 1021.4 - 0.0 - - - - - - -
30/03:30pm 19.5 SSE 9 12 1021.2 - 0.0 - - - - - - -
30/03:00pm 19.5 SSE 10 13 1021.0 - 0.0 - - - - - - -
30/02:30pm 19.8 SSE 10 12 1020.9 - 0.0 - - - - - - -
30/02:00pm 19.7 SSE 11 13 1021.1 - 0.0 - - - - - - -
30/01:30pm 19.7 SSE 11 14 1021.1 - 0.0 - - - - - - -
30/01:00pm 19.6 SSE 12 15 1021.2 - 0.0 - - - - - - -
30/12:30pm 19.9 SSE 12 15 1021.5 - 0.0 - - - - - - -
30/12:00pm 19.7 SSE 13 16 1021.9 - 0.0 - - - - - - -
30/11:30am 19.0 S 14 19 1022.3 - 0.0 - - - - - - -
30/11:00am 18.5 S 14 18 1022.6 - 0.0 - - - - - - -
30/10:30am 18.8 S 14 17 1022.8 - 0.0 - - - - - - -
30/10:00am 18.5 SSE 14 18 1022.9 - 0.0 - - - - - - -
30/09:30am 18.4 SSE 14 17 1022.8 - 0.0 - - - - - - -
30/09:00am 18.6 S 13 17 1022.9 - 0.0 - - - - - - -
30/08:30am 17.5 S 13 17 1022.4 - 0.0 - - - - - - -
30/08:00am 17.2 S 12 15 1022.2 - 0.0 - - - - - - -
30/07:30am 16.7 S 13 15 1021.9 - 0.0 - - - - - - -
30/07:00am 16.5 S 13 15 1021.4 - 0.0 - - - - - - -
30/06:30am 16.3 S 13 14 1021.0 - 0.0 - - - - - - -
30/06:00am 16.3 S 13 15 1020.6 - 0.0 - - - - - - -
30/05:30am 16.3 S 13 14 1020.4 - 0.0 - - - - - - -
30/05:00am 16.4 S 13 14 1020.0 - 0.0 - - - - - - -
30/04:30am 16.3 S 12 14 1019.8 - 0.0 - - - - - - -
30/04:00am 16.3 S 11 12 1019.7 - 0.0 - - - - - - -
30/03:30am 16.7 S 11 12 1019.7 - 0.0 - - - - - - -
30/03:00am 16.0 S 11 13 1019.6 - 0.0 - - - - - - -
30/02:30am 16.3 SSW 11 13 1019.6 - 0.0 - - - - - - -
30/02:00am 16.3 SSW 10 11 1019.5 - 0.0 - - - - - - -
30/01:30am 16.5 SSW 10 11 1019.5 - 0.0 - - - - - - -
30/01:00am 16.8 SSW 10 12 1019.6 - 0.0 - - - - - - -
30/12:30am 17.2 SSW 9 11 1019.6 - 0.0 - - - - - - -
30/12:00am 17.3 SW 8 10 1019.7 - 0.0 - - - - - - -
 
Date/Time
EST
Temp

°C
Wind Pressure Rain
since 9am
mm
Weather Cloud Vis
km
Sea
Height
m
Swell
Dir
 
Speed
knots
Gust
knots
hPa Trend Height
m
Period
s
Dir
29/11:30pm 17.4 WSW 5 6 1019.8 - 0.0 - - - - - - -
29/11:00pm 17.6 WSW 5 7 1020.1 - 0.0 - - - - - - -
29/10:30pm 17.9 WSW 6 7 1020.3 - 0.0 - - - - - - -
29/10:00pm 18.0 W 6 7 1020.2 - 0.0 - - - - - - -
29/09:30pm 17.8 W 7 8 1020.1 - 0.0 - - - - - - -
29/09:00pm 17.9 WNW 8 11 1019.9 - 0.0 - - - - - - -
29/08:30pm 17.7 NNW 5 7 1019.8 - 0.0 - - - - - - -
29/08:00pm 17.6 N 3 5 1019.3 - 0.0 - - - - - - -
29/07:30pm 18.1 N 3 5 1018.9 - 0.0 - - - - - - -
29/07:00pm 18.5 N 2 3 1018.7 - 0.0 - - - - - - -
29/06:30pm 18.2 N 1 3 1018.5 - 0.0 - - - - - - -
29/06:00pm 17.7 NNW 3 4 1018.2 - 0.0 - - - - - - -
29/05:30pm 17.7 N 3 5 1018.0 - 0.0 - - - - - - -
29/05:00pm 18.3 NE 4 6 1017.6 - 0.0 - - - - - - -
29/04:30pm 18.6 E 5 6 1017.4 - 0.0 - - - - - - -
29/04:00pm 18.8 ENE 7 8 1017.1 - 0.0 - - - - - - -
29/03:30pm 18.9 ENE 4 5 1016.8 - 0.0 - - - - - - -
29/03:00pm 20.8 NNE 5 8 1016.6 - 0.0 - - - - - - -
29/02:30pm 19.5 NE 5 7 1016.8 - 0.0 - - - - - - -
29/02:00pm 22.8 N 5 7 1016.8 - 0.0 - - - - - - -
29/01:30pm 21.9 NNW 5 9 1016.5 - 0.0 - - - - - - -
29/01:00pm 19.2 SSE 6 9 1016.7 - 0.0 - - - - - - -
29/12:30pm 19.4 S 6 8 1016.8 - 0.0 - - - - - - -
29/12:00pm 18.8 SSE 9 12 1017.3 - 0.0 - - - - - - -
29/11:30am 18.3 S 8 12 1017.9 - 0.0 - - - - - - -
29/11:00am 17.8 SSE 7 9 1018.2 - 0.0 - - - - - - -
29/10:30am 17.1 S 5 8 1018.8 - 0.0 - - - - - - -
29/10:00am 17.0 S 7 9 1018.8 - 0.0 - - - - - - -
29/09:30am 16.3 WSW 6 10 1018.7 - 0.0 - - - - - - -
29/09:00am 15.6 W 7 10 1018.8 - 0.0 - - - - - - -
29/08:30am 15.3 WSW 5 7 1018.7 - 0.0 - - - - - - -
29/08:00am 14.6 SW 5 9 1018.7 - 0.0 - - - - - - -
29/07:30am 13.9 SW 7 9 1018.2 - 0.0 - - - - - - -
29/07:00am 13.8 WSW 6 8 1017.7 - 0.0 - - - - - - -
29/06:30am 13.4 SSW 9 11 1017.2 - 0.0 - - - - - - -
29/06:00am 13.6 SSW 7 10 1017.1 - 0.0 - - - - - - -
29/05:30am 13.9 SSW 9 12 1016.8 - 0.0 - - - - - - -
29/05:00am 14.3 SSW 10 13 1016.4 - 0.0 - - - - - - -
29/04:30am 14.5 SSW 11 13 1016.4 - 0.0 - - - - - - -
29/04:00am 14.9 SSW 11 14 1016.3 - 0.0 - - - - - - -
29/03:30am 15.5 SSW 13 19 1016.2 - 0.0 - - - - - - -
29/03:00am 15.4 SW 9 15 1015.8 - 0.0 - - - - - - -
29/02:30am 16.0 SW 12 17 1015.6 - 0.0 - - - - - - -
29/02:00am 16.3 SW 12 17 1015.6 - 0.0 - - - - - - -
29/01:30am 16.7 SW 15 20 1015.5 - 0.0 - - - - - - -
29/01:00am 16.7 SW 14 17 1015.7 - 0.0 - - - - - - -
29/12:30am 16.6 SW 13 16 1015.5 - 0.0 - - - - - - -
29/12:00am 16.9 SW 11 14 1015.7 - 0.0 - - - - - - -
 
Date/Time
EST
Temp

°C
Wind Pressure Rain
since 9am
mm
Weather Cloud Vis
km
Sea
Height
m
Swell
Dir
 
Speed
knots
Gust
knots
hPa Trend Height
m
Period
s
Dir
28/11:30pm 17.5 SW 12 15 1015.8 - 0.0 - - - - - - -
28/11:00pm 17.5 SSW 10 13 1015.9 - 0.0 - - - - - - -
28/10:30pm 18.1 SW 13 16 1015.9 - 0.0 - - - - - - -

Other Formats:

Comma delimited format used in spreadsheet applications
http://www.bom.gov.au/fwo/IDQ60701/IDQ60701.94584.axf

JavaScript Object Notation format (JSON) in row-major order
http://www.bom.gov.au/fwo/IDQ60701/IDQ60701.94584.json